Time;durP1;ratioP1;P1;durP2;ratioP2;P2;SDS_P1;SDS_P2;PMS_P1;PMS_P2;Temp;Humidity;BMP_temperature;BMP_pressure;BME280_temperature;BME280_humidity;BME280_pressure;Samples;Min_cycle;Max_cycle;Signal;HPM_P1;HPM_P2
2021/06/29 00:00:34;;;;;;;11.57;2.60;;;19.70;99.90;;;;;;4991031;28;20561;-45
2021/06/29 00:03:02;;;;;;;9.45;2.67;;;19.50;99.90;;;;;;4991157;28;20026;-46
2021/06/29 00:05:32;;;;;;;13.48;3.33;;;19.40;99.90;;;;;;4990995;28;20500;-46
2021/06/29 00:07:59;;;;;;;8.70;3.70;;;19.40;99.90;;;;;;4991060;28;20081;-47
2021/06/29 00:10:25;;;;;;;5.22;3.17;;;19.30;99.90;;;;;;4991000;28;20022;-48
2021/06/29 00:12:55;;;;;;;3.83;3.22;;;19.30;99.90;;;;;;4990976;28;20093;-47
2021/06/29 00:15:22;;;;;;;4.43;3.10;;;19.30;99.90;;;;;;4990788;28;20299;-47
2021/06/29 00:17:48;;;;;;;9.77;3.28;;;19.30;99.90;;;;;;4989726;28;20026;-51
2021/06/29 00:20:14;;;;;;;4.43;2.80;;;19.30;99.90;;;;;;4991081;28;20085;-47
2021/06/29 00:22:40;;;;;;;6.05;2.67;;;19.30;99.90;;;;;;4991285;28;20552;-52
2021/06/29 00:25:06;;;;;;;4.93;3.28;;;19.30;99.90;;;;;;4989576;28;20038;-55
2021/06/29 00:27:32;;;;;;;3.70;2.90;;;19.30;99.90;;;;;;4988434;28;20061;-49
2021/06/29 00:29:58;;;;;;;3.33;3.00;;;19.30;99.90;;;;;;4976014;28;20027;-49
2021/06/29 00:32:23;;;;;;;6.07;2.92;;;19.40;99.90;;;;;;4986659;28;20032;-53
2021/06/29 00:34:49;;;;;;;9.05;3.35;;;19.40;99.90;;;;;;4989498;28;20448;-55
2021/06/29 00:37:14;;;;;;;8.68;3.53;;;19.40;99.90;;;;;;4989616;28;20029;-55
2021/06/29 00:39:40;;;;;;;3.22;2.80;;;19.50;99.90;;;;;;4989277;28;20057;-56
2021/06/29 00:42:06;;;;;;;6.57;3.25;;;19.50;99.90;;;;;;4988668;28;20030;-50
2021/06/29 00:44:31;;;;;;;4.90;3.10;;;19.50;99.90;;;;;;5005815;28;20058;-48
2021/06/29 00:46:57;;;;;;;7.72;3.28;;;19.50;99.90;;;;;;4993514;28;20027;-48
2021/06/29 00:49:23;;;;;;;3.67;3.03;;;19.60;99.90;;;;;;4993764;28;20034;-48
2021/06/29 00:51:50;;;;;;;5.13;2.95;;;19.70;99.90;;;;;;4993383;28;20054;-54
2021/06/29 00:54:16;;;;;;;6.03;3.22;;;19.70;99.90;;;;;;4993678;28;20095;-52
2021/06/29 00:56:45;;;;;;;7.68;3.13;;;19.70;99.90;;;;;;4993238;28;20397;-50
2021/06/29 00:59:11;;;;;;;4.53;2.92;;;19.70;99.90;;;;;;4993009;28;20386;-49
2021/06/29 01:01:36;;;;;;;6.60;4.13;;;19.70;99.90;;;;;;4993738;28;20034;-52
2021/06/29 01:04:02;;;;;;;10.63;3.88;;;19.70;99.90;;;;;;4993382;28;20505;-46
2021/06/29 01:06:28;;;;;;;7.50;3.25;;;19.90;99.90;;;;;;4993428;28;20528;-50
2021/06/29 01:08:54;;;;;;;9.02;4.22;;;19.90;99.90;;;;;;4993226;28;20477;-50
2021/06/29 01:11:20;;;;;;;12.45;3.95;;;19.80;99.90;;;;;;4992921;28;20531;-48
2021/06/29 01:13:46;;;;;;;7.85;3.55;;;19.70;99.90;;;;;;4992665;28;20034;-50
2021/06/29 01:16:13;;;;;;;5.10;3.42;;;19.70;99.90;;;;;;4993338;28;20373;-49
2021/06/29 01:18:40;;;;;;;3.92;3.50;;;19.70;99.90;;;;;;4992969;28;20371;-50
2021/06/29 01:21:11;;;;;;;8.93;3.60;;;19.60;99.90;;;;;;4993208;28;20109;-53
2021/06/29 01:23:38;;;;;;;4.60;3.78;;;19.60;99.90;;;;;;4992550;28;20049;-48
2021/06/29 01:28:54;;;;;;;5.50;3.72;;;19.90;99.90;;;;;;4992595;28;20034;-48
2021/06/29 01:31:20;;;;;;;7.68;4.13;;;19.80;99.90;;;;;;4993010;28;20022;-53
2021/06/29 01:33:47;;;;;;;7.97;4.15;;;19.70;99.90;;;;;;4986364;28;20037;-50
2021/06/29 01:36:17;;;;;;;6.88;4.65;;;19.70;99.90;;;;;;4973652;28;20030;-50
2021/06/29 01:38:44;;;;;;;5.25;4.13;;;19.50;99.90;;;;;;4989074;28;20057;-57
2021/06/29 01:41:11;;;;;;;8.82;4.18;;;19.50;99.90;;;;;;4992794;28;20030;-48
2021/06/29 01:43:44;;;;;;;13.45;4.20;;;19.50;99.90;;;;;;4992396;28;20265;-46
2021/06/29 01:46:10;;;;;;;7.45;4.20;;;19.60;99.90;;;;;;4993084;28;20517;-49
2021/06/29 01:48:36;;;;;;;13.98;4.57;;;19.50;99.90;;;;;;4992208;28;20038;-45
2021/06/29 01:51:02;;;;;;;6.20;4.22;;;19.40;99.90;;;;;;4992114;28;20034;-53
2021/06/29 01:53:27;;;;;;;4.95;4.50;;;19.40;99.90;;;;;;4992636;28;20533;-57
2021/06/29 01:55:53;;;;;;;6.75;4.53;;;19.40;99.90;;;;;;4976600;28;20228;-50
2021/06/29 01:58:23;;;;;;;5.80;4.70;;;19.30;99.90;;;;;;4973493;28;20074;-48
2021/06/29 02:00:48;;;;;;;8.45;5.00;;;19.40;99.90;;;;;;4987671;28;20441;-48
2021/06/29 02:03:14;;;;;;;8.65;4.80;;;19.50;99.90;;;;;;4992482;28;20070;-50
2021/06/29 02:05:39;;;;;;;10.50;4.85;;;19.50;99.90;;;;;;4992362;28;20069;-47
2021/06/29 02:08:05;;;;;;;6.80;5.07;;;19.40;99.90;;;;;;4990988;28;20133;-48
2021/06/29 02:10:31;;;;;;;5.55;4.70;;;19.40;99.90;;;;;;4992158;28;20548;-46
2021/06/29 02:12:57;;;;;;;9.52;4.38;;;19.30;99.90;;;;;;4992923;28;20398;-45
2021/06/29 02:15:23;;;;;;;8.10;4.57;;;19.40;99.90;;;;;;4992068;28;20398;-53
2021/06/29 02:17:49;;;;;;;7.55;4.43;;;19.30;99.90;;;;;;4992378;28;20030;-47
2021/06/29 02:20:16;;;;;;;4.93;4.20;;;19.30;99.90;;;;;;4992059;28;20474;-49
2021/06/29 02:22:42;;;;;;;6.75;4.82;;;19.20;99.90;;;;;;4991917;28;20034;-48
2021/06/29 02:25:08;;;;;;;8.65;4.70;;;19.30;99.90;;;;;;4991974;28;20037;-55
2021/06/29 02:27:34;;;;;;;6.65;5.95;;;19.30;99.90;;;;;;4992054;28;20030;-56
2021/06/29 02:29:59;;;;;;;8.18;5.20;;;19.40;99.90;;;;;;4987617;28;20450;-48
2021/06/29 02:32:26;;;;;;;5.90;5.10;;;19.30;99.90;;;;;;4991644;28;20060;-50
2021/06/29 02:34:52;;;;;;;11.00;5.13;;;19.20;99.90;;;;;;4994622;28;20042;-47
2021/06/29 02:37:18;;;;;;;5.72;5.18;;;19.10;99.90;;;;;;4992932;28;20026;-50
2021/06/29 02:39:43;;;;;;;6.88;4.80;;;19.10;99.90;;;;;;4992338;28;20031;-51
2021/06/29 02:42:09;;;;;;;9.25;6.07;;;19.00;99.90;;;;;;4992621;28;20493;-47
2021/06/29 02:44:36;;;;;;;7.20;5.88;;;19.00;99.90;;;;;;4992073;28;20030;-47
2021/06/29 02:47:01;;;;;;;7.47;5.38;;;19.00;99.90;;;;;;4992934;28;20409;-48
2021/06/29 02:49:27;;;;;;;7.13;5.00;;;18.90;99.90;;;;;;4992626;28;20034;-49
2021/06/29 02:51:53;;;;;;;15.60;6.00;;;18.90;99.90;;;;;;4992520;28;20073;-49
2021/06/29 02:54:18;;;;;;;10.02;6.28;;;18.90;99.90;;;;;;4991808;28;20034;-47
2021/06/29 02:56:44;;;;;;;15.45;6.38;;;18.90;99.90;;;;;;4992229;28;20129;-48
2021/06/29 02:59:12;;;;;;;8.52;6.07;;;18.90;99.90;;;;;;4992133;28;20041;-47
2021/06/29 03:01:38;;;;;;;13.38;7.50;;;18.90;99.90;;;;;;4992242;28;20507;-47
2021/06/29 03:04:03;;;;;;;8.77;7.40;;;18.90;99.90;;;;;;4991551;28;20034;-49
2021/06/29 03:06:29;;;;;;;9.43;7.22;;;18.90;99.90;;;;;;4991882;28;20113;-48
2021/06/29 03:08:55;;;;;;;11.68;8.77;;;18.80;99.90;;;;;;4991973;28;20117;-46
2021/06/29 03:11:21;;;;;;;9.25;8.20;;;18.80;99.90;;;;;;4992284;28;20485;-52
2021/06/29 03:13:46;;;;;;;10.07;7.88;;;18.80;99.90;;;;;;4992047;28;20533;-47
2021/06/29 03:16:12;;;;;;;10.90;7.80;;;18.80;99.90;;;;;;4992046;28;20026;-50
2021/06/29 03:18:38;;;;;;;14.40;8.73;;;18.80;99.90;;;;;;4992029;28;20045;-48
2021/06/29 03:21:06;;;;;;;9.70;7.97;;;18.80;99.90;;;;;;4991429;28;20524;-47
2021/06/29 03:23:32;;;;;;;13.80;8.20;;;18.80;99.90;;;;;;4991675;28;20092;-51
2021/06/29 03:25:57;;;;;;;9.27;8.18;;;18.80;99.90;;;;;;4991674;28;20069;-46
2021/06/29 03:28:23;;;;;;;10.45;7.88;;;18.80;99.90;;;;;;4991854;28;20031;-50
2021/06/29 03:30:49;;;;;;;14.57;9.32;;;18.90;99.90;;;;;;4991720;28;20374;-47
2021/06/29 03:33:14;;;;;;;16.88;8.40;;;19.00;99.90;;;;;;4991585;28;20072;-51
2021/06/29 03:35:40;;;;;;;12.23;8.07;;;18.90;99.90;;;;;;4991159;28;20022;-47
2021/06/29 03:38:05;;;;;;;17.67;9.13;;;18.90;99.90;;;;;;4991524;28;20029;-52
2021/06/29 03:40:31;;;;;;;11.02;8.38;;;18.90;99.90;;;;;;4991277;28;20493;-47
2021/06/29 03:42:56;;;;;;;13.77;9.02;;;19.00;99.90;;;;;;4991432;28;20062;-47
2021/06/29 03:45:22;;;;;;;13.57;9.18;;;19.00;99.90;;;;;;4991000;28;20042;-46
2021/06/29 03:47:48;;;;;;;16.95;8.88;;;19.00;99.90;;;;;;4991120;28;20061;-47
2021/06/29 03:50:13;;;;;;;15.65;8.88;;;19.00;99.90;;;;;;4991326;28;20076;-47
2021/06/29 03:52:39;;;;;;;9.80;8.48;;;19.00;99.90;;;;;;4991465;28;20030;-47
2021/06/29 03:55:08;;;;;;;16.23;8.88;;;19.00;99.90;;;;;;4991318;28;20106;-49
2021/06/29 03:57:34;;;;;;;15.15;8.95;;;19.00;99.90;;;;;;4991374;28;20064;-47
2021/06/29 03:59:59;;;;;;;13.60;8.73;;;19.00;99.90;;;;;;4991390;28;20075;-47
2021/06/29 04:02:27;;;;;;;12.05;8.23;;;19.00;99.90;;;;;;4990665;28;20476;-48
2021/06/29 04:04:54;;;;;;;13.40;8.38;;;18.90;99.90;;;;;;4994897;23;20077;-41
2021/06/29 04:07:20;;;;;;;13.43;9.75;;;19.00;99.90;;;;;;4974643;28;20038;-41
2021/06/29 04:09:45;;;;;;;16.23;9.10;;;19.00;99.90;;;;;;4971776;28;20023;-42
2021/06/29 04:12:11;;;;;;;14.35;7.55;;;19.00;99.90;;;;;;4963369;28;20511;-41
2021/06/29 04:14:37;;;;;;;12.95;8.07;;;19.00;99.90;;;;;;4977777;28;20023;-48
2021/06/29 04:17:03;;;;;;;14.73;7.55;;;19.00;99.90;;;;;;4963966;28;20037;-41
2021/06/29 04:19:28;;;;;;;17.10;9.18;;;19.00;99.90;;;;;;4957923;28;20111;-42
2021/06/29 04:21:54;;;;;;;16.50;7.78;;;19.00;99.90;;;;;;4975578;28;20038;-42
2021/06/29 04:24:20;;;;;;;10.95;7.10;;;19.00;99.90;;;;;;4976243;28;20026;-41
2021/06/29 04:26:46;;;;;;;10.50;6.93;;;19.00;99.90;;;;;;4962384;28;20027;-43
2021/06/29 04:29:11;;;;;;;11.43;7.15;;;19.00;99.90;;;;;;4958664;29;20043;-47
2021/06/29 04:31:37;;;;;;;12.70;6.90;;;19.00;99.90;;;;;;4959832;28;20053;-41
2021/06/29 04:34:03;;;;;;;6.68;6.07;;;19.00;99.90;;;;;;4962981;28;20546;-42
2021/06/29 04:36:29;;;;;;;10.00;6.85;;;18.90;99.90;;;;;;4977825;28;20031;-41
2021/06/29 04:38:55;;;;;;;8.40;7.07;;;18.90;99.90;;;;;;4970376;28;20022;-41
2021/06/29 04:41:20;;;;;;;11.15;7.05;;;18.80;99.90;;;;;;4958503;29;20054;-40
2021/06/29 04:43:46;;;;;;;15.38;7.10;;;18.90;99.90;;;;;;4957806;29;20023;-43
2021/06/29 04:46:13;;;;;;;11.27;6.90;;;18.80;99.90;;;;;;4958465;28;20085;-44
2021/06/29 04:48:39;;;;;;;8.90;6.60;;;18.90;99.90;;;;;;4963704;28;20437;-44
2021/06/29 04:51:06;;;;;;;9.63;6.55;;;19.00;99.90;;;;;;4977591;28;20473;-43
2021/06/29 04:53:32;;;;;;;8.50;5.55;;;19.00;99.90;;;;;;4968676;28;20031;-44
2021/06/29 04:55:58;;;;;;;8.13;5.93;;;19.00;99.90;;;;;;4958370;29;20027;-42
2021/06/29 04:58:24;;;;;;;14.95;8.18;;;19.00;99.90;;;;;;4958455;29;20034;-42
2021/06/29 05:00:50;;;;;;;7.43;6.25;;;19.00;99.90;;;;;;4958787;28;20038;-41
2021/06/29 05:03:17;;;;;;;8.52;6.00;;;19.10;99.90;;;;;;4958267;28;20057;-42
2021/06/29 05:05:42;;;;;;;7.35;5.97;;;19.10;99.90;;;;;;4986279;28;20084;-44
2021/06/29 05:08:11;;;;;;;8.93;6.00;;;19.00;99.90;;;;;;4992413;28;20516;-44
2021/06/29 05:10:37;;;;;;;7.53;5.88;;;19.00;99.90;;;;;;4980967;28;20030;-45
2021/06/29 05:13:03;;;;;;;13.63;6.68;;;19.00;99.90;;;;;;4992223;28;20026;-43
2021/06/29 05:15:29;;;;;;;8.38;6.45;;;19.00;99.90;;;;;;4994839;28;20555;-45
2021/06/29 05:17:55;;;;;;;6.80;6.20;;;19.00;99.90;;;;;;4977438;28;20490;-44
2021/06/29 05:20:21;;;;;;;15.15;7.38;;;19.00;99.90;;;;;;4960299;28;20107;-43
2021/06/29 05:22:46;;;;;;;10.73;6.50;;;19.10;99.90;;;;;;4977492;28;20114;-42
2021/06/29 05:25:13;;;;;;;10.73;7.32;;;19.10;99.90;;;;;;4976628;28;20038;-43
2021/06/29 05:27:40;;;;;;;8.77;6.78;;;19.10;99.90;;;;;;4961088;28;20073;-43
2021/06/29 05:30:08;;;;;;;9.88;7.22;;;19.10;99.90;;;;;;4995910;28;20041;-45
2021/06/29 05:32:34;;;;;;;7.70;7.00;;;19.20;99.90;;;;;;4993870;28;20026;-41
2021/06/29 05:34:59;;;;;;;10.27;7.22;;;19.20;99.90;;;;;;4994052;28;20037;-42
2021/06/29 05:37:25;;;;;;;9.13;7.63;;;19.20;99.90;;;;;;4993280;28;20018;-44
2021/06/29 05:39:50;;;;;;;9.05;7.68;;;19.20;99.90;;;;;;4989292;28;20118;-48
2021/06/29 05:42:16;;;;;;;8.80;7.13;;;19.30;99.90;;;;;;4984649;28;20018;-41
2021/06/29 05:44:42;;;;;;;6.88;6.13;;;19.30;99.90;;;;;;4990800;28;20035;-43
2021/06/29 05:47:09;;;;;;;13.85;7.13;;;19.30;99.90;;;;;;4980203;28;20027;-44
2021/06/29 05:49:36;;;;;;;8.48;7.20;;;19.30;99.90;;;;;;4974047;28;20122;-44
2021/06/29 05:52:02;;;;;;;12.70;7.82;;;19.40;99.90;;;;;;4973887;28;20643;-41
2021/06/29 05:54:29;;;;;;;10.60;6.93;;;19.40;99.90;;;;;;4975944;28;20519;-46
2021/06/29 05:56:54;;;;;;;7.45;6.78;;;19.40;99.90;;;;;;4993272;28;20022;-41
2021/06/29 05:59:20;;;;;;;11.52;6.97;;;19.50;99.90;;;;;;4989702;28;20030;-41
2021/06/29 06:01:45;;;;;;;11.07;6.65;;;19.50;99.90;;;;;;4993031;28;20027;-41
2021/06/29 06:04:11;;;;;;;12.57;6.88;;;19.50;99.90;;;;;;4992220;28;20038;-44
2021/06/29 06:06:36;;;;;;;7.85;7.05;;;19.50;99.90;;;;;;4993177;28;20520;-41
2021/06/29 06:09:02;;;;;;;11.73;6.63;;;19.60;99.90;;;;;;4993091;28;20556;-43
2021/06/29 06:11:28;;;;;;;11.48;7.18;;;19.60;99.90;;;;;;4992856;28;20118;-45
2021/06/29 06:13:53;;;;;;;8.73;7.82;;;19.60;99.90;;;;;;4992143;28;20121;-42
2021/06/29 06:16:19;;;;;;;9.32;7.53;;;19.60;99.90;;;;;;4992848;28;20022;-41
2021/06/29 06:18:44;;;;;;;8.80;6.32;;;19.60;99.90;;;;;;4993198;28;20503;-42
2021/06/29 06:21:10;;;;;;;10.15;6.50;;;19.60;99.90;;;;;;4992755;28;20045;-41
2021/06/29 06:23:37;;;;;;;11.82;7.75;;;19.70;99.90;;;;;;4992007;28;20062;-42
2021/06/29 06:26:03;;;;;;;8.38;7.63;;;19.70;99.90;;;;;;4992766;28;20544;-42
2021/06/29 06:28:28;;;;;;;12.52;8.35;;;19.80;99.90;;;;;;4992591;28;20034;-42
2021/06/29 06:30:54;;;;;;;7.72;6.82;;;19.80;99.90;;;;;;4992590;28;20287;-41
2021/06/29 06:33:21;;;;;;;13.63;7.65;;;19.80;99.90;;;;;;4992048;28;20391;-41
2021/06/29 06:35:47;;;;;;;13.65;6.50;;;19.80;99.90;;;;;;4975003;28;20027;-41
2021/06/29 06:38:12;;;;;;;10.88;7.18;;;19.80;99.90;;;;;;4992547;28;20085;-41
2021/06/29 06:40:38;;;;;;;7.95;7.07;;;19.90;99.90;;;;;;4992890;28;20101;-41
2021/06/29 06:43:03;;;;;;;9.02;6.20;;;19.90;99.90;;;;;;4992097;28;20030;-43
2021/06/29 06:45:29;;;;;;;8.98;6.93;;;20.00;99.90;;;;;;4991685;28;20305;-42
2021/06/29 06:47:55;;;;;;;8.40;6.75;;;20.10;99.90;;;;;;4992407;28;20080;-41
2021/06/29 06:50:22;;;;;;;10.52;6.50;;;20.20;99.90;;;;;;4992332;28;20026;-40
2021/06/29 06:52:49;;;;;;;6.65;5.82;;;20.30;99.90;;;;;;4992354;28;20377;-41
2021/06/29 06:55:14;;;;;;;14.52;6.95;;;20.30;99.90;;;;;;4991868;28;20029;-43
2021/06/29 06:57:43;;;;;;;12.10;7.80;;;20.30;99.90;;;;;;4992145;28;20486;-46
2021/06/29 07:00:09;;;;;;;8.63;7.57;;;20.30;99.90;;;;;;4992193;28;20026;-41
2021/06/29 07:02:37;;;;;;;7.68;6.88;;;20.30;99.90;;;;;;4992043;28;20030;-41
2021/06/29 07:05:04;;;;;;;8.23;7.47;;;20.20;99.90;;;;;;4990902;28;20422;-41
2021/06/29 07:07:30;;;;;;;7.32;6.72;;;20.30;99.90;;;;;;4989164;28;20581;-42
2021/06/29 07:09:56;;;;;;;7.32;6.63;;;20.30;99.90;;;;;;4983628;28;20636;-43
2021/06/29 07:12:21;;;;;;;7.72;6.95;;;20.30;99.90;;;;;;4987523;28;20516;-45
2021/06/29 07:14:47;;;;;;;8.45;6.95;;;20.40;99.90;;;;;;4981599;28;20098;-42
2021/06/29 07:17:12;;;;;;;9.50;7.88;;;20.50;99.90;;;;;;4974680;28;20029;-43
2021/06/29 07:19:38;;;;;;;9.07;6.95;;;20.50;99.90;;;;;;4980359;28;20041;-44
2021/06/29 07:22:03;;;;;;;8.52;7.60;;;20.50;99.90;;;;;;4974644;28;20269;-40
2021/06/29 07:24:29;;;;;;;9.77;8.25;;;20.50;99.90;;;;;;4976457;28;20030;-43
2021/06/29 07:26:55;;;;;;;8.73;7.93;;;20.40;99.90;;;;;;4991237;28;20037;-44
2021/06/29 07:29:21;;;;;;;12.07;8.85;;;20.40;99.90;;;;;;4988040;28;20401;-41
2021/06/29 07:31:46;;;;;;;10.65;9.57;;;20.40;99.90;;;;;;4982374;28;20037;-39
2021/06/29 07:34:12;;;;;;;10.35;9.25;;;20.40;99.90;;;;;;4979884;28;20390;-41
2021/06/29 07:36:37;;;;;;;10.43;9.32;;;20.40;99.90;;;;;;4989750;28;20358;-40
2021/06/29 07:39:04;;;;;;;12.55;9.27;;;20.40;99.90;;;;;;4989902;28;20030;-45
2021/06/29 07:41:30;;;;;;;13.23;9.80;;;20.50;99.90;;;;;;4986574;28;20107;-41
2021/06/29 07:43:55;;;;;;;15.75;10.95;;;20.60;99.90;;;;;;4972434;28;20030;-43
2021/06/29 07:46:21;;;;;;;12.88;7.93;;;20.60;99.90;;;;;;4982214;28;20027;-43
2021/06/29 07:48:47;;;;;;;7.78;6.97;;;20.80;99.90;;;;;;4988187;28;20030;-43
2021/06/29 07:51:13;;;;;;;8.27;7.57;;;21.00;99.90;;;;;;4993075;28;20065;-41
2021/06/29 07:53:40;;;;;;;10.68;7.85;;;21.30;99.90;;;;;;4977820;28;20027;-42
2021/06/29 07:56:06;;;;;;;8.55;7.53;;;21.50;99.90;;;;;;4973132;28;20386;-41
2021/06/29 07:58:31;;;;;;;13.60;8.13;;;21.80;99.90;;;;;;4971843;28;20097;-40
2021/06/29 08:00:57;;;;;;;7.50;6.90;;;21.90;99.90;;;;;;4978878;28;20026;-43
2021/06/29 08:03:22;;;;;;;16.80;8.02;;;22.10;99.90;;;;;;4989197;28;20069;-41
2021/06/29 08:05:48;;;;;;;9.25;6.47;;;22.50;99.90;;;;;;4986005;28;20061;-44
2021/06/29 08:08:14;;;;;;;6.55;5.97;;;23.00;99.90;;;;;;4971680;28;20027;-43
2021/06/29 08:10:39;;;;;;;7.43;5.95;;;23.20;99.90;;;;;;4971364;28;20085;-48
2021/06/29 08:13:07;;;;;;;6.32;5.72;;;23.40;99.90;;;;;;4971633;28;20062;-41
2021/06/29 08:15:33;;;;;;;8.45;5.80;;;23.40;99.90;;;;;;4971055;28;20026;-41
2021/06/29 08:17:58;;;;;;;7.97;5.57;;;23.50;99.90;;;;;;4971768;28;20022;-42
2021/06/29 08:20:24;;;;;;;12.45;5.95;;;23.60;99.90;;;;;;4979666;28;20524;-43
2021/06/29 08:22:52;;;;;;;7.68;5.80;;;23.70;99.90;;;;;;4972519;28;20038;-47
2021/06/29 08:25:20;;;;;;;6.15;5.53;;;23.70;99.90;;;;;;4972773;28;20026;-44
2021/06/29 08:27:45;;;;;;;5.68;5.18;;;23.50;99.90;;;;;;4972674;28;20186;-49
2021/06/29 08:30:12;;;;;;;6.97;4.35;;;23.30;99.90;;;;;;4975808;28;20030;-42
2021/06/29 08:32:38;;;;;;;7.90;4.45;;;23.10;99.90;;;;;;4991119;28;20030;-42
2021/06/29 08:35:08;;;;;;;5.10;4.20;;;22.90;99.90;;;;;;4988583;28;20038;-42
2021/06/29 08:37:34;;;;;;;7.70;5.53;;;22.90;99.90;;;;;;4990852;28;20042;-45
2021/06/29 08:40:00;;;;;;;5.28;4.88;;;22.90;99.90;;;;;;4971534;28;20031;-42
2021/06/29 08:42:26;;;;;;;10.88;6.63;;;22.90;99.90;;;;;;4972025;28;20050;-46
2021/06/29 08:44:52;;;;;;;7.75;6.07;;;22.90;99.90;;;;;;4972843;28;20031;-48
2021/06/29 08:47:17;;;;;;;6.05;5.43;;;22.80;99.90;;;;;;4981919;28;20061;-43
2021/06/29 08:49:43;;;;;;;6.55;5.43;;;22.70;99.90;;;;;;4977705;28;20038;-47
2021/06/29 08:52:09;;;;;;;8.35;4.80;;;22.60;99.90;;;;;;4990019;28;20030;-51
2021/06/29 08:54:36;;;;;;;16.80;5.78;;;22.60;99.90;;;;;;4987930;28;20033;-44
2021/06/29 08:57:03;;;;;;;7.43;4.78;;;22.70;99.90;;;;;;4989658;28;20450;-45
2021/06/29 08:59:29;;;;;;;5.10;4.70;;;22.70;99.90;;;;;;4989786;28;20026;-48
2021/06/29 09:01:55;;;;;;;5.40;4.90;;;22.70;99.90;;;;;;4989712;28;20121;-53
2021/06/29 09:04:43;;;;;;;5.22;4.82;;;23.00;99.90;;;;;;4989405;28;20041;-50
2021/06/29 09:07:19;;;;;;;5.55;5.00;;;23.50;99.90;;;;;;4993761;28;20037;-48
2021/06/29 09:09:56;;;;;;;5.07;4.63;;;23.80;99.90;;;;;;4994116;28;20420;-51
2021/06/29 09:12:47;;;;;;;6.35;4.22;;;24.00;99.90;;;;;;4994113;28;20478;-46
2021/06/29 09:15:27;;;;;;;4.80;4.50;;;24.30;99.90;;;;;;4992767;28;20030;-47
2021/06/29 09:18:07;;;;;;;7.70;3.97;;;24.40;99.90;;;;;;4994029;28;20027;-50
2021/06/29 09:20:48;;;;;;;3.80;3.50;;;24.30;99.70;;;;;;4993991;28;20022;-53
2021/06/29 09:23:17;;;;;;;4.15;3.85;;;24.50;99.90;;;;;;4994094;28;20382;-50
2021/06/29 09:25:49;;;;;;;5.72;3.75;;;24.40;99.90;;;;;;4993728;28;20074;-47
2021/06/29 09:28:21;;;;;;;4.57;3.22;;;24.50;99.90;;;;;;4992333;28;20030;-47
2021/06/29 09:31:12;;;;;;;3.53;3.22;;;24.70;99.90;;;;;;4993600;28;20030;-48
2021/06/29 09:33:40;;;;;;;3.38;3.08;;;24.80;99.90;;;;;;4993005;28;20231;-50
2021/06/29 09:36:08;;;;;;;5.13;3.25;;;25.00;99.90;;;;;;4994237;28;20026;-50
2021/06/29 09:38:38;;;;;;;4.03;3.15;;;25.00;99.40;;;;;;4993595;28;20023;-51
2021/06/29 09:41:15;;;;;;;3.08;2.58;;;25.00;98.60;;;;;;4993675;28;20030;-47
2021/06/29 09:43:48;;;;;;;4.03;2.97;;;24.80;98.80;;;;;;4993096;28;20109;-46
2021/06/29 09:46:16;;;;;;;3.05;2.85;;;24.80;99.10;;;;;;4993634;28;20040;-45
2021/06/29 09:48:43;;;;;;;4.05;2.65;;;24.90;99.00;;;;;;4993285;28;20030;-45
2021/06/29 09:51:22;;;;;;;3.47;3.15;;;25.00;98.70;;;;;;4993391;28;20034;-49
2021/06/29 09:53:51;;;;;;;3.08;2.88;;;25.00;98.70;;;;;;4993200;28;20047;-48
2021/06/29 09:56:25;;;;;;;6.63;3.30;;;25.10;97.80;;;;;;4993416;28;20018;-47
2021/06/29 09:58:53;;;;;;;3.72;2.50;;;25.30;97.90;;;;;;4993516;28;20026;-49
2021/06/29 10:01:20;;;;;;;3.60;2.72;;;25.40;97.30;;;;;;4993177;28;20255;-50
2021/06/29 10:06:17;;;;;;;5.18;2.08;;;25.40;96.50;;;;;;4952827;29;20051;-51
2021/06/29 10:08:47;;;;;;;5.47;2.40;;;25.40;96.70;;;;;;4954466;29;20023;-50
2021/06/29 10:11:18;;;;;;;2.92;2.60;;;25.40;96.60;;;;;;4954182;29;20090;-48
2021/06/29 10:13:56;;;;;;;4.18;2.50;;;25.40;96.70;;;;;;4953396;28;20015;-48
2021/06/29 10:16:24;;;;;;;5.18;2.65;;;25.40;97.30;;;;;;4953364;28;20026;-47
2021/06/29 10:18:54;;;;;;;3.08;2.80;;;25.40;96.50;;;;;;4954127;29;20027;-50
2021/06/29 10:21:22;;;;;;;3.72;2.42;;;25.10;96.90;;;;;;4954482;29;20430;-52
2021/06/29 10:24:00;;;;;;;6.82;3.20;;;25.00;97.40;;;;;;4953067;28;20028;-46
2021/06/29 10:26:27;;;;;;;2.90;2.70;;;25.00;97.60;;;;;;4950785;29;20046;-46
2021/06/29 10:28:53;;;;;;;2.70;2.38;;;24.90;97.70;;;;;;4953217;29;20045;-49
2021/06/29 10:31:26;;;;;;;2.50;2.20;;;24.90;97.90;;;;;;4953073;29;20078;-47
2021/06/29 10:33:54;;;;;;;4.45;2.63;;;24.90;97.80;;;;;;4952443;28;20024;-52
2021/06/29 10:36:21;;;;;;;6.22;2.28;;;25.00;97.90;;;;;;4953706;29;20035;-49
2021/06/29 10:38:48;;;;;;;2.15;2.05;;;25.30;97.30;;;;;;4953507;29;20049;-48
2021/06/29 10:41:15;;;;;;;4.15;2.45;;;25.40;96.80;;;;;;4953858;29;20027;-48
2021/06/29 10:43:41;;;;;;;2.05;1.88;;;25.40;96.80;;;;;;4952959;29;20075;-48
2021/06/29 10:46:28;;;;;;;3.40;1.95;;;25.30;96.80;;;;;;4953628;29;20034;-49
2021/06/29 10:48:56;;;;;;;1.95;1.85;;;25.20;96.30;;;;;;4952487;29;20106;-55
2021/06/29 10:51:39;;;;;;;3.53;1.90;;;25.30;96.80;;;;;;4953463;29;20047;-50
2021/06/29 10:54:24;;;;;;;4.50;2.50;;;25.30;97.00;;;;;;4950509;28;20046;-52
2021/06/29 10:56:55;;;;;;;4.97;2.72;;;25.30;97.40;;;;;;4952739;29;20514;-50
2021/06/29 10:59:33;;;;;;;2.42;2.22;;;25.50;96.80;;;;;;4953358;29;20023;-53
2021/06/29 11:01:59;;;;;;;3.08;2.30;;;25.60;96.80;;;;;;4952250;29;20062;-54
2021/06/29 11:04:46;;;;;;;6.72;2.50;;;25.60;96.90;;;;;;4952847;28;20035;-55
2021/06/29 11:07:45;;;;;;;7.35;2.30;;;25.60;96.80;;;;;;4953547;29;20024;-54
2021/06/29 11:10:14;;;;;;;3.15;2.70;;;25.60;97.10;;;;;;4924385;29;20044;-52
2021/06/29 11:12:52;;;;;;;3.08;2.78;;;25.40;96.60;;;;;;4940254;29;20031;-46
2021/06/29 11:15:37;;;;;;;3.40;2.17;;;25.30;96.90;;;;;;4952455;28;20518;-48
2021/06/29 11:18:03;;;;;;;2.95;2.60;;;25.40;97.80;;;;;;4944706;29;20051;-49
2021/06/29 11:20:43;;;;;;;3.08;2.33;;;25.50;95.90;;;;;;4930855;29;20091;-51
2021/06/29 11:23:26;;;;;;;2.53;2.33;;;25.30;96.00;;;;;;4932019;29;20052;-55
2021/06/29 11:25:57;;;;;;;11.15;3.95;;;25.20;96.50;;;;;;4932846;29;20048;-50
2021/06/29 11:28:25;;;;;;;3.08;2.40;;;25.20;96.20;;;;;;4933771;29;20558;-49
2021/06/29 11:30:52;;;;;;;5.07;2.53;;;25.20;97.10;;;;;;4933437;29;20504;-49
2021/06/29 11:33:42;;;;;;;2.38;2.28;;;25.30;97.40;;;;;;4933201;29;20047;-48
2021/06/29 11:36:23;;;;;;;3.55;2.47;;;25.30;96.90;;;;;;4936249;29;20054;-50
2021/06/29 11:38:49;;;;;;;3.42;2.40;;;25.50;96.30;;;;;;4952935;29;20458;-51
2021/06/29 11:41:33;;;;;;;2.50;2.30;;;25.60;96.60;;;;;;4939741;29;20059;-50
2021/06/29 11:44:18;;;;;;;2.50;2.30;;;25.70;96.00;;;;;;4933046;29;20040;-50
2021/06/29 11:47:02;;;;;;;4.25;2.65;;;25.80;96.30;;;;;;4914751;29;20039;-51
2021/06/29 11:49:30;;;;;;;7.63;2.53;;;26.00;96.20;;;;;;4903967;29;20044;-50
2021/06/29 11:52:01;;;;;;;5.07;2.60;;;25.90;95.10;;;;;;4933348;29;20035;-50
2021/06/29 11:54:39;;;;;;;2.13;2.03;;;25.90;95.00;;;;;;4933254;29;20027;-52
2021/06/29 11:57:29;;;;;;;3.67;2.25;;;26.00;94.40;;;;;;4932775;29;20024;-52
2021/06/29 12:00:01;;;;;;;3.42;2.00;;;26.00;95.30;;;;;;4918687;29;20027;-53
2021/06/29 12:02:29;;;;;;;2.75;2.20;;;25.90;96.00;;;;;;4933138;29;20019;-52
2021/06/29 12:05:01;;;;;;;2.17;2.08;;;25.90;96.30;;;;;;4941535;29;20038;-52
2021/06/29 12:07:41;;;;;;;3.65;2.38;;;25.90;96.30;;;;;;4934928;29;20030;-51
2021/06/29 12:10:19;;;;;;;3.28;2.10;;;26.00;96.00;;;;;;4952458;29;20074;-51
2021/06/29 12:12:50;;;;;;;6.38;2.15;;;26.00;95.50;;;;;;4951716;29;20498;-53
2021/06/29 12:15:25;;;;;;;4.80;2.30;;;26.00;95.70;;;;;;4951698;29;20645;-49
2021/06/29 12:17:59;;;;;;;2.60;2.40;;;26.00;95.10;;;;;;4951983;29;20023;-55
2021/06/29 12:20:32;;;;;;;2.90;1.92;;;25.80;93.90;;;;;;4950818;29;20031;-48
2021/06/29 12:22:59;;;;;;;2.85;2.25;;;25.80;95.00;;;;;;4941619;29;20494;-47
2021/06/29 12:25:37;;;;;;;2.50;2.30;;;25.80;95.50;;;;;;4951571;29;20082;-49
2021/06/29 12:28:09;;;;;;;6.28;2.60;;;25.80;95.40;;;;;;4935207;29;20027;-50
2021/06/29 12:30:46;;;;;;;2.80;2.50;;;25.90;95.20;;;;;;4952368;29;20032;-49
2021/06/29 12:33:28;;;;;;;2.05;1.95;;;25.90;95.50;;;;;;4952073;29;20028;-50
2021/06/29 12:36:02;;;;;;;2.92;2.40;;;25.90;95.20;;;;;;4952446;29;20028;-50
2021/06/29 12:38:30;;;;;;;2.25;2.03;;;26.10;94.90;;;;;;4951925;29;20031;-52
2021/06/29 12:40:59;;;;;;;4.35;1.77;;;26.10;95.10;;;;;;4937884;29;20035;-49
2021/06/29 12:43:26;;;;;;;2.35;2.20;;;26.00;95.00;;;;;;4955966;29;20479;-50
2021/06/29 12:45:53;;;;;;;1.80;1.70;;;26.10;95.00;;;;;;4955953;29;20434;-50
2021/06/29 12:48:19;;;;;;;2.65;2.15;;;26.20;94.70;;;;;;4955822;29;20030;-47
2021/06/29 12:50:59;;;;;;;3.35;2.08;;;26.10;94.60;;;;;;4956467;29;20036;-53
2021/06/29 12:53:24;;;;;;;2.90;1.90;;;26.10;94.30;;;;;;4955626;29;20031;-47